DAL1177 KSAN-KSLC
Flight info
| Callsign | DAL1177 |
|---|---|
| Flight time | 1h 35m |
| Altitude | 39000 |
| Route | ZZOOO4 MTBAL LAKRR BERYL J107 MLF PITTT1 |
| Aircraft | B739/M-SDE2E3FGHIRWXY/LB1 |
Departure
| Time | 2026-05-07 18:18 |
|---|---|
| Airport | San Diego International Airport (KSAN) |
Arrival
| Time | 2026-05-07 19:53 |
|---|---|
| Airport | Salt Lake City International Airport (KSLC) |
| Time | Latitude | Longitude | Altitude | Speed | Heading |
|---|---|---|---|---|---|
| 2026-05-07 18:00 | 32.73343 | -117.20468 | 15 ft | 0 kts | 76° |
| 2026-05-07 18:06 | 32.73340 | -117.20482 | 20 ft | 3 kts | 76° |
| 2026-05-07 18:06 | 32.73336 | -117.20502 | 20 ft | 3 kts | 76° |
| 2026-05-07 18:07 | 32.73332 | -117.20523 | 25 ft | 3 kts | 76° |
| 2026-05-07 18:07 | 32.73327 | -117.20544 | 24 ft | 3 kts | 76° |
| 2026-05-07 18:07 | 32.73323 | -117.20565 | 24 ft | 3 kts | 76° |
| 2026-05-07 18:07 | 32.73319 | -117.20584 | 24 ft | 0 kts | 77° |
| 2026-05-07 18:12 | 32.73334 | -117.20573 | 23 ft | 6 kts | 24° |
| 2026-05-07 18:12 | 32.73394 | -117.20558 | 20 ft | 10 kts | 7° |
| 2026-05-07 18:12 | 32.73448 | -117.20550 | 19 ft | 9 kts | 10° |
| 2026-05-07 18:12 | 32.73531 | -117.20485 | 16 ft | 18 kts | 47° |
| 2026-05-07 18:13 | 32.73590 | -117.20364 | 18 ft | 15 kts | 81° |
| 2026-05-07 18:13 | 32.73575 | -117.20287 | 23 ft | 12 kts | 105° |
| 2026-05-07 18:13 | 32.73535 | -117.20139 | 22 ft | 26 kts | 109° |
| 2026-05-07 18:13 | 32.73486 | -117.19923 | 24 ft | 27 kts | 104° |
| 2026-05-07 18:14 | 32.73447 | -117.19729 | 25 ft | 21 kts | 101° |
| 2026-05-07 18:14 | 32.73397 | -117.19546 | 23 ft | 28 kts | 107° |
| 2026-05-07 18:14 | 32.73344 | -117.19327 | 21 ft | 29 kts | 106° |
| 2026-05-07 18:14 | 32.73286 | -117.19105 | 21 ft | 26 kts | 113° |
| 2026-05-07 18:15 | 32.73232 | -117.18875 | 22 ft | 31 kts | 104° |
| 2026-05-07 18:15 | 32.73191 | -117.18636 | 22 ft | 25 kts | 109° |
| 2026-05-07 18:15 | 32.73123 | -117.18434 | 20 ft | 32 kts | 103° |
| 2026-05-07 18:15 | 32.73071 | -117.18215 | 19 ft | 22 kts | 104° |
| 2026-05-07 18:16 | 32.73027 | -117.18037 | 18 ft | 25 kts | 106° |
| 2026-05-07 18:16 | 32.72983 | -117.17857 | 15 ft | 22 kts | 107° |
| 2026-05-07 18:16 | 32.72969 | -117.17717 | 15 ft | 9 kts | 60° |
| 2026-05-07 18:16 | 32.73000 | -117.17625 | 18 ft | 13 kts | 45° |
| 2026-05-07 18:17 | 32.73041 | -117.17666 | 17 ft | 13 kts | 288° |
| 2026-05-07 18:17 | 32.73098 | -117.17890 | 16 ft | 62 kts | 285° |
| 2026-05-07 18:17 | 32.73205 | -117.18336 | 23 ft | 106 kts | 285° |
| 2026-05-07 18:17 | 32.73454 | -117.19373 | 23 ft | 152 kts | 285° |
| 2026-05-07 18:18 | 32.73797 | -117.20754 | 206 ft | 188 kts | 288° |
| 2026-05-07 18:18 | 32.74270 | -117.22226 | 869 ft | 200 kts | 291° |
| 2026-05-07 18:18 | 32.74843 | -117.23801 | 1536 ft | 214 kts | 297° |
| 2026-05-07 18:18 | 32.75537 | -117.25367 | 2179 ft | 228 kts | 284° |
| 2026-05-07 18:19 | 32.75728 | -117.27277 | 2671 ft | 239 kts | 278° |
| 2026-05-07 18:19 | 32.76022 | -117.29247 | 3328 ft | 244 kts | 284° |
| 2026-05-07 18:19 | 32.76414 | -117.31215 | 4029 ft | 246 kts | 284° |
| 2026-05-07 18:19 | 32.76497 | -117.33241 | 4720 ft | 251 kts | 257° |
| 2026-05-07 18:20 | 32.75728 | -117.35097 | 5347 ft | 256 kts | 229° |
| 2026-05-07 18:20 | 32.74280 | -117.36323 | 6011 ft | 260 kts | 199° |
| 2026-05-07 18:20 | 32.72495 | -117.36566 | 6663 ft | 262 kts | 169° |
| 2026-05-07 18:20 | 32.70847 | -117.35702 | 7277 ft | 261 kts | 138° |
| 2026-05-07 18:21 | 32.69603 | -117.34159 | 7964 ft | 260 kts | 127° |
| 2026-05-07 18:21 | 32.68480 | -117.32467 | 8633 ft | 262 kts | 126° |
| 2026-05-07 18:21 | 32.67353 | -117.30758 | 9345 ft | 263 kts | 126° |
| 2026-05-07 18:21 | 32.66212 | -117.29062 | 10031 ft | 264 kts | 127° |
| 2026-05-07 18:22 | 32.65055 | -117.27366 | 10623 ft | 267 kts | 127° |
| 2026-05-07 18:22 | 32.64275 | -117.26231 | 11013 ft | 269 kts | 126° |
| 2026-05-07 18:22 | 32.63057 | -117.23666 | 11685 ft | 272 kts | 101° |
| 2026-05-07 18:22 | 32.62766 | -117.21394 | 11852 ft | 291 kts | 94° |
| 2026-05-07 18:23 | 32.62566 | -117.18916 | 12023 ft | 311 kts | 93° |
| 2026-05-07 18:23 | 32.62364 | -117.16302 | 12178 ft | 330 kts | 93° |
| 2026-05-07 18:23 | 32.62140 | -117.13514 | 12324 ft | 349 kts | 94° |
| 2026-05-07 18:23 | 32.62051 | -117.10577 | 12424 ft | 364 kts | 79° |
| 2026-05-07 18:24 | 32.62939 | -117.07760 | 12577 ft | 374 kts | 55° |
| 2026-05-07 18:24 | 32.64685 | -117.05468 | 12982 ft | 379 kts | 39° |
| 2026-05-07 18:24 | 32.66789 | -117.03559 | 13510 ft | 381 kts | 37° |
| 2026-05-07 18:24 | 32.68910 | -117.01718 | 14038 ft | 383 kts | 36° |
| 2026-05-07 18:25 | 32.71072 | -116.99858 | 14497 ft | 385 kts | 36° |
| 2026-05-07 18:25 | 32.73244 | -116.97982 | 14935 ft | 388 kts | 36° |
| 2026-05-07 18:25 | 32.75433 | -116.96087 | 15394 ft | 390 kts | 36° |
| 2026-05-07 18:25 | 32.77614 | -116.94184 | 15846 ft | 392 kts | 37° |
| 2026-05-07 18:26 | 32.79811 | -116.92253 | 16288 ft | 394 kts | 37° |
| 2026-05-07 18:26 | 32.82021 | -116.90299 | 16715 ft | 397 kts | 37° |
| 2026-05-07 18:26 | 32.84243 | -116.88326 | 17138 ft | 399 kts | 37° |
| 2026-05-07 18:26 | 32.86470 | -116.86343 | 17563 ft | 401 kts | 37° |
| 2026-05-07 18:27 | 32.88714 | -116.84343 | 17959 ft | 404 kts | 37° |
| 2026-05-07 18:27 | 32.90962 | -116.82337 | 18359 ft | 406 kts | 37° |
| 2026-05-07 18:27 | 32.93236 | -116.80307 | 18712 ft | 408 kts | 37° |
| 2026-05-07 18:27 | 32.95514 | -116.78272 | 19082 ft | 410 kts | 37° |
| 2026-05-07 18:28 | 32.97799 | -116.76229 | 19441 ft | 411 kts | 37° |
| 2026-05-07 18:28 | 33.00085 | -116.74184 | 19769 ft | 413 kts | 37° |
| 2026-05-07 18:28 | 33.02390 | -116.72121 | 20157 ft | 415 kts | 37° |
| 2026-05-07 18:28 | 33.04704 | -116.70048 | 20448 ft | 418 kts | 37° |
| 2026-05-07 18:29 | 33.07031 | -116.67962 | 20774 ft | 420 kts | 37° |
| 2026-05-07 18:29 | 33.09369 | -116.65865 | 21104 ft | 421 kts | 37° |
| 2026-05-07 18:29 | 33.11716 | -116.63759 | 21435 ft | 422 kts | 37° |
| 2026-05-07 18:29 | 33.14071 | -116.61644 | 21748 ft | 424 kts | 37° |
| 2026-05-07 18:30 | 33.16433 | -116.59521 | 22066 ft | 426 kts | 37° |
| 2026-05-07 18:30 | 33.18803 | -116.57389 | 22367 ft | 428 kts | 37° |
| 2026-05-07 18:30 | 33.21187 | -116.55243 | 22661 ft | 430 kts | 37° |
| 2026-05-07 18:30 | 33.23584 | -116.53084 | 22950 ft | 432 kts | 37° |
| 2026-05-07 18:31 | 33.25986 | -116.50919 | 23236 ft | 433 kts | 37° |
| 2026-05-07 18:31 | 33.28370 | -116.48769 | 23506 ft | 436 kts | 36° |
| 2026-05-07 18:31 | 33.30827 | -116.46550 | 23756 ft | 438 kts | 36° |
| 2026-05-07 18:31 | 33.33258 | -116.44354 | 23995 ft | 440 kts | 36° |
| 2026-05-07 18:32 | 33.35675 | -116.42169 | 24253 ft | 441 kts | 36° |
| 2026-05-07 18:32 | 33.38122 | -116.39956 | 24512 ft | 442 kts | 36° |
| 2026-05-07 18:32 | 33.40598 | -116.37765 | 24742 ft | 443 kts | 34° |
| 2026-05-07 18:32 | 33.43177 | -116.35730 | 24954 ft | 445 kts | 32° |
| 2026-05-07 18:33 | 33.45805 | -116.33757 | 25216 ft | 446 kts | 31° |
| 2026-05-07 18:33 | 33.48452 | -116.31802 | 25433 ft | 447 kts | 31° |
| 2026-05-07 18:33 | 33.51102 | -116.29848 | 25675 ft | 449 kts | 31° |
| 2026-05-07 18:33 | 33.53754 | -116.27882 | 25906 ft | 450 kts | 32° |
| 2026-05-07 18:34 | 33.56430 | -116.25885 | 26156 ft | 451 kts | 32° |
| 2026-05-07 18:34 | 33.59098 | -116.23883 | 26467 ft | 450 kts | 32° |
| 2026-05-07 18:34 | 33.61751 | -116.21884 | 26841 ft | 448 kts | 32° |
| 2026-05-07 18:34 | 33.64386 | -116.19892 | 27211 ft | 447 kts | 32° |
| 2026-05-07 18:35 | 33.67011 | -116.17906 | 27544 ft | 446 kts | 32° |
| 2026-05-07 18:35 | 33.69635 | -116.15918 | 27882 ft | 446 kts | 32° |
| 2026-05-07 18:35 | 33.72254 | -116.13933 | 28245 ft | 445 kts | 32° |
| 2026-05-07 18:35 | 33.74868 | -116.11950 | 28590 ft | 444 kts | 32° |
| 2026-05-07 18:36 | 33.77484 | -116.09965 | 28949 ft | 444 kts | 32° |
| 2026-05-07 18:36 | 33.80085 | -116.07989 | 29351 ft | 442 kts | 32° |
| 2026-05-07 18:36 | 33.82679 | -116.06018 | 29752 ft | 441 kts | 32° |
| 2026-05-07 18:36 | 33.85264 | -116.04052 | 30145 ft | 439 kts | 32° |
| 2026-05-07 18:37 | 33.87843 | -116.02089 | 30478 ft | 438 kts | 32° |
| 2026-05-07 18:37 | 33.90421 | -116.00126 | 30806 ft | 437 kts | 32° |
| 2026-05-07 18:37 | 33.92985 | -115.98173 | 31159 ft | 435 kts | 32° |
| 2026-05-07 18:37 | 33.95540 | -115.96229 | 31490 ft | 434 kts | 33° |
| 2026-05-07 18:38 | 33.98058 | -115.94306 | 31775 ft | 433 kts | 33° |
| 2026-05-07 18:38 | 34.00634 | -115.92337 | 32059 ft | 433 kts | 33° |
| 2026-05-07 18:38 | 34.03139 | -115.90421 | 32391 ft | 432 kts | 33° |
| 2026-05-07 18:38 | 34.05678 | -115.88479 | 32734 ft | 430 kts | 33° |
| 2026-05-07 18:39 | 34.08199 | -115.86548 | 33024 ft | 429 kts | 33° |
| 2026-05-07 18:39 | 34.10714 | -115.84622 | 33299 ft | 428 kts | 33° |
| 2026-05-07 18:39 | 34.13227 | -115.82696 | 33580 ft | 427 kts | 33° |
| 2026-05-07 18:39 | 34.15730 | -115.80775 | 33859 ft | 426 kts | 33° |
| 2026-05-07 18:40 | 34.18224 | -115.78861 | 34098 ft | 425 kts | 33° |
| 2026-05-07 18:40 | 34.20717 | -115.76946 | 34266 ft | 425 kts | 33° |
| 2026-05-07 18:40 | 34.23222 | -115.75020 | 34392 ft | 426 kts | 33° |
| 2026-05-07 18:40 | 34.25719 | -115.73100 | 34566 ft | 426 kts | 33° |
| 2026-05-07 18:41 | 34.28222 | -115.71173 | 34733 ft | 426 kts | 33° |
| 2026-05-07 18:41 | 34.30726 | -115.69245 | 34879 ft | 427 kts | 32° |
| 2026-05-07 18:41 | 34.33228 | -115.67316 | 35027 ft | 428 kts | 32° |
| 2026-05-07 18:41 | 34.35735 | -115.65381 | 35198 ft | 427 kts | 32° |
| 2026-05-07 18:42 | 34.38247 | -115.63446 | 35355 ft | 428 kts | 32° |
| 2026-05-07 18:42 | 34.40757 | -115.61514 | 35490 ft | 428 kts | 32° |
| 2026-05-07 18:42 | 34.43267 | -115.59576 | 35630 ft | 428 kts | 32° |
| 2026-05-07 18:42 | 34.45775 | -115.57633 | 35795 ft | 428 kts | 32° |
| 2026-05-07 18:43 | 34.48283 | -115.55691 | 35900 ft | 426 kts | 32° |
| 2026-05-07 18:43 | 34.53247 | -115.51842 | 35940 ft | 426 kts | 32° |
| 2026-05-07 18:44 | 34.58246 | -115.47954 | 35971 ft | 427 kts | 32° |
| 2026-05-07 18:44 | 34.63251 | -115.44062 | 35997 ft | 427 kts | 33° |
| 2026-05-07 18:45 | 34.68260 | -115.40163 | 36045 ft | 427 kts | 33° |
| 2026-05-07 18:45 | 34.73262 | -115.36264 | 36113 ft | 427 kts | 33° |
| 2026-05-07 18:46 | 34.78248 | -115.32371 | 36168 ft | 426 kts | 33° |
| 2026-05-07 18:46 | 34.83243 | -115.28465 | 36222 ft | 426 kts | 33° |
| 2026-05-07 18:47 | 34.88216 | -115.24571 | 36273 ft | 425 kts | 33° |
| 2026-05-07 18:47 | 34.93199 | -115.20664 | 36299 ft | 425 kts | 33° |
| 2026-05-07 18:48 | 34.98146 | -115.16779 | 36338 ft | 425 kts | 33° |
| 2026-05-07 18:48 | 35.03117 | -115.12870 | 36382 ft | 425 kts | 33° |
| 2026-05-07 18:49 | 35.08082 | -115.08959 | 36431 ft | 424 kts | 33° |
| 2026-05-07 18:49 | 35.13040 | -115.05049 | 36453 ft | 424 kts | 33° |
| 2026-05-07 18:50 | 35.17998 | -115.01132 | 36503 ft | 424 kts | 33° |
| 2026-05-07 18:50 | 35.22949 | -114.97215 | 36552 ft | 424 kts | 33° |
| 2026-05-07 18:51 | 35.27898 | -114.93295 | 36574 ft | 424 kts | 33° |
| 2026-05-07 18:51 | 35.32807 | -114.89400 | 36606 ft | 423 kts | 33° |
| 2026-05-07 18:52 | 35.37750 | -114.85472 | 36626 ft | 423 kts | 33° |
| 2026-05-07 18:52 | 35.42692 | -114.81539 | 36666 ft | 423 kts | 33° |
| 2026-05-07 18:53 | 35.47633 | -114.77601 | 36691 ft | 423 kts | 33° |
| 2026-05-07 18:53 | 35.52568 | -114.73663 | 36728 ft | 423 kts | 33° |
| 2026-05-07 18:54 | 35.57468 | -114.69746 | 36744 ft | 423 kts | 33° |
| 2026-05-07 18:54 | 35.62396 | -114.65801 | 36785 ft | 422 kts | 33° |
| 2026-05-07 18:55 | 35.67315 | -114.61857 | 36806 ft | 422 kts | 33° |
| 2026-05-07 18:55 | 35.72218 | -114.57921 | 36973 ft | 418 kts | 33° |
| 2026-05-07 18:56 | 35.77072 | -114.54017 | 37006 ft | 415 kts | 33° |
| 2026-05-07 18:56 | 35.81901 | -114.50128 | 37008 ft | 413 kts | 33° |
| 2026-05-07 18:57 | 35.86672 | -114.46280 | 37007 ft | 411 kts | 33° |
| 2026-05-07 18:57 | 35.91443 | -114.42426 | 37010 ft | 409 kts | 33° |
| 2026-05-07 18:58 | 35.96192 | -114.38585 | 37000 ft | 408 kts | 33° |
| 2026-05-07 18:58 | 35.98577 | -114.36654 | 36721 ft | 414 kts | 33° |
| 2026-05-07 18:58 | 36.01001 | -114.34689 | 36487 ft | 419 kts | 33° |
| 2026-05-07 18:58 | 36.03449 | -114.32703 | 36248 ft | 424 kts | 33° |
| 2026-05-07 18:59 | 36.05933 | -114.30688 | 35999 ft | 428 kts | 33° |
| 2026-05-07 18:59 | 36.08447 | -114.28694 | 35750 ft | 430 kts | 30° |
| 2026-05-07 18:59 | 36.11126 | -114.27055 | 35501 ft | 430 kts | 24° |
| 2026-05-07 18:59 | 36.13877 | -114.25569 | 35264 ft | 431 kts | 23° |
| 2026-05-07 19:00 | 36.16636 | -114.24113 | 35070 ft | 430 kts | 23° |
| 2026-05-07 19:00 | 36.22089 | -114.21220 | 35021 ft | 429 kts | 23° |
| 2026-05-07 19:01 | 36.27549 | -114.18278 | 35010 ft | 428 kts | 23° |
| 2026-05-07 19:01 | 36.32985 | -114.15317 | 35012 ft | 426 kts | 23° |
| 2026-05-07 19:02 | 36.38413 | -114.12353 | 35022 ft | 425 kts | 23° |
| 2026-05-07 19:02 | 36.43823 | -114.09396 | 35015 ft | 424 kts | 23° |
| 2026-05-07 19:03 | 36.49204 | -114.06450 | 35021 ft | 422 kts | 23° |
| 2026-05-07 19:03 | 36.54546 | -114.03516 | 35025 ft | 422 kts | 23° |
| 2026-05-07 19:04 | 36.59911 | -114.00565 | 35028 ft | 421 kts | 23° |
| 2026-05-07 19:04 | 36.65264 | -113.97621 | 35020 ft | 420 kts | 23° |
| 2026-05-07 19:05 | 36.70601 | -113.94683 | 35023 ft | 419 kts | 23° |
| 2026-05-07 19:05 | 36.75940 | -113.91738 | 35026 ft | 419 kts | 23° |
| 2026-05-07 19:06 | 36.80369 | -113.89293 | 35027 ft | 418 kts | 23° |
| 2026-05-07 19:06 | 36.88352 | -113.84877 | 35033 ft | 418 kts | 23° |
| 2026-05-07 19:07 | 36.93679 | -113.81924 | 35035 ft | 419 kts | 23° |
| 2026-05-07 19:07 | 36.98975 | -113.78985 | 35051 ft | 418 kts | 23° |
| 2026-05-07 19:08 | 37.04433 | -113.76528 | 35070 ft | 416 kts | 15° |
| 2026-05-07 19:08 | 37.10042 | -113.74690 | 35064 ft | 416 kts | 14° |
| 2026-05-07 19:09 | 37.15653 | -113.72864 | 35058 ft | 416 kts | 14° |
| 2026-05-07 19:09 | 37.21251 | -113.70998 | 35052 ft | 416 kts | 14° |
| 2026-05-07 19:10 | 37.26846 | -113.69106 | 35055 ft | 416 kts | 14° |
| 2026-05-07 19:10 | 37.32403 | -113.67216 | 35034 ft | 416 kts | 14° |
| 2026-05-07 19:11 | 37.37996 | -113.65311 | 35030 ft | 416 kts | 14° |
| 2026-05-07 19:11 | 37.43590 | -113.63402 | 35033 ft | 416 kts | 14° |
| 2026-05-07 19:12 | 37.49179 | -113.61492 | 35032 ft | 416 kts | 14° |
| 2026-05-07 19:12 | 37.54773 | -113.59579 | 35031 ft | 417 kts | 14° |
| 2026-05-07 19:13 | 37.60381 | -113.57657 | 35030 ft | 417 kts | 14° |
| 2026-05-07 19:13 | 37.65979 | -113.55736 | 35031 ft | 417 kts | 14° |
| 2026-05-07 19:14 | 37.71593 | -113.53806 | 35026 ft | 418 kts | 14° |
| 2026-05-07 19:14 | 37.77200 | -113.51875 | 35033 ft | 418 kts | 14° |
| 2026-05-07 19:15 | 37.82814 | -113.49939 | 35027 ft | 417 kts | 14° |
| 2026-05-07 19:15 | 37.88375 | -113.48019 | 35017 ft | 417 kts | 14° |
| 2026-05-07 19:16 | 37.93971 | -113.46083 | 35008 ft | 417 kts | 14° |
| 2026-05-07 19:16 | 37.99567 | -113.44144 | 35004 ft | 417 kts | 14° |
| 2026-05-07 19:17 | 38.05161 | -113.42203 | 35000 ft | 417 kts | 14° |
| 2026-05-07 19:17 | 38.10751 | -113.40260 | 35007 ft | 417 kts | 14° |
| 2026-05-07 19:18 | 38.16350 | -113.38312 | 35007 ft | 417 kts | 14° |
| 2026-05-07 19:18 | 38.21959 | -113.36355 | 35011 ft | 417 kts | 14° |
| 2026-05-07 19:19 | 38.27517 | -113.34414 | 35040 ft | 417 kts | 14° |
| 2026-05-07 19:19 | 38.33116 | -113.32456 | 35063 ft | 417 kts | 14° |
| 2026-05-07 19:20 | 38.38716 | -113.30494 | 35081 ft | 417 kts | 14° |
| 2026-05-07 19:20 | 38.44311 | -113.28530 | 35085 ft | 417 kts | 13° |
| 2026-05-07 19:21 | 38.49911 | -113.26562 | 35088 ft | 417 kts | 14° |
| 2026-05-07 19:21 | 38.55505 | -113.24593 | 35081 ft | 417 kts | 14° |
| 2026-05-07 19:22 | 38.61105 | -113.22618 | 35068 ft | 417 kts | 13° |
| 2026-05-07 19:22 | 38.66704 | -113.20640 | 35054 ft | 417 kts | 14° |
| 2026-05-07 19:23 | 38.72307 | -113.18658 | 35024 ft | 418 kts | 13° |
| 2026-05-07 19:23 | 38.77913 | -113.16672 | 35005 ft | 418 kts | 13° |
| 2026-05-07 19:24 | 38.83509 | -113.14686 | 35007 ft | 417 kts | 13° |
| 2026-05-07 19:24 | 38.89068 | -113.12710 | 35008 ft | 417 kts | 13° |
| 2026-05-07 19:25 | 38.94665 | -113.10717 | 35005 ft | 417 kts | 13° |
| 2026-05-07 19:25 | 39.00252 | -113.08724 | 35005 ft | 417 kts | 13° |
| 2026-05-07 19:26 | 39.05840 | -113.06728 | 35007 ft | 416 kts | 13° |
| 2026-05-07 19:26 | 39.11424 | -113.04729 | 35009 ft | 416 kts | 13° |
| 2026-05-07 19:27 | 39.16984 | -113.02737 | 35010 ft | 416 kts | 13° |
| 2026-05-07 19:27 | 39.22560 | -113.00735 | 35011 ft | 416 kts | 13° |
| 2026-05-07 19:28 | 39.28104 | -112.98741 | 35014 ft | 416 kts | 13° |
| 2026-05-07 19:28 | 39.33675 | -112.96735 | 35016 ft | 416 kts | 13° |
| 2026-05-07 19:29 | 39.39244 | -112.94725 | 35025 ft | 416 kts | 13° |
| 2026-05-07 19:29 | 39.44821 | -112.92710 | 35029 ft | 416 kts | 13° |
| 2026-05-07 19:30 | 39.50393 | -112.90693 | 35035 ft | 415 kts | 13° |
| 2026-05-07 19:30 | 39.55952 | -112.88679 | 35034 ft | 415 kts | 12° |
| 2026-05-07 19:31 | 39.61503 | -112.86671 | 35032 ft | 415 kts | 12° |
| 2026-05-07 19:31 | 39.67061 | -112.84650 | 35026 ft | 415 kts | 12° |
| 2026-05-07 19:32 | 39.72626 | -112.82622 | 35027 ft | 415 kts | 12° |
| 2026-05-07 19:32 | 39.78184 | -112.80591 | 35026 ft | 415 kts | 12° |
| 2026-05-07 19:33 | 39.83709 | -112.78571 | 35029 ft | 415 kts | 12° |
| 2026-05-07 19:33 | 39.89257 | -112.76531 | 35038 ft | 415 kts | 12° |
| 2026-05-07 19:34 | 39.94822 | -112.74488 | 35057 ft | 415 kts | 12° |
| 2026-05-07 19:34 | 40.00400 | -112.72438 | 35054 ft | 416 kts | 12° |
| 2026-05-07 19:35 | 40.05974 | -112.70387 | 35072 ft | 416 kts | 12° |
| 2026-05-07 19:35 | 40.08776 | -112.69355 | 34717 ft | 423 kts | 12° |
| 2026-05-07 19:35 | 40.11636 | -112.68303 | 34075 ft | 428 kts | 12° |
| 2026-05-07 19:36 | 40.14500 | -112.67248 | 33222 ft | 426 kts | 12° |
| 2026-05-07 19:36 | 40.17342 | -112.66200 | 32407 ft | 424 kts | 12° |
| 2026-05-07 19:36 | 40.20183 | -112.65149 | 31588 ft | 423 kts | 12° |
| 2026-05-07 19:36 | 40.23014 | -112.64102 | 30761 ft | 422 kts | 12° |
| 2026-05-07 19:37 | 40.25839 | -112.63055 | 29859 ft | 423 kts | 12° |
| 2026-05-07 19:37 | 40.28673 | -112.62001 | 28875 ft | 424 kts | 12° |
| 2026-05-07 19:37 | 40.31490 | -112.60949 | 28281 ft | 416 kts | 12° |
| 2026-05-07 19:37 | 40.34270 | -112.59913 | 27626 ft | 416 kts | 11° |
| 2026-05-07 19:38 | 40.37085 | -112.58868 | 26993 ft | 426 kts | 11° |
| 2026-05-07 19:38 | 40.39953 | -112.57805 | 26376 ft | 431 kts | 12° |
| 2026-05-07 19:38 | 40.42815 | -112.56739 | 25745 ft | 424 kts | 12° |
| 2026-05-07 19:38 | 40.45589 | -112.55701 | 25138 ft | 417 kts | 11° |
| 2026-05-07 19:39 | 40.48385 | -112.54654 | 24538 ft | 411 kts | 11° |
| 2026-05-07 19:39 | 40.51076 | -112.53647 | 23939 ft | 405 kts | 11° |
| 2026-05-07 19:39 | 40.53764 | -112.52642 | 23273 ft | 400 kts | 11° |
| 2026-05-07 19:39 | 40.56416 | -112.51649 | 22638 ft | 393 kts | 11° |
| 2026-05-07 19:40 | 40.59023 | -112.50673 | 22046 ft | 387 kts | 11° |
| 2026-05-07 19:40 | 40.61592 | -112.49711 | 21474 ft | 382 kts | 11° |
| 2026-05-07 19:40 | 40.64135 | -112.48759 | 20908 ft | 378 kts | 11° |
| 2026-05-07 19:40 | 40.66659 | -112.47814 | 20366 ft | 381 kts | 11° |
| 2026-05-07 19:41 | 40.69244 | -112.46849 | 19797 ft | 393 kts | 11° |
| 2026-05-07 19:41 | 40.71896 | -112.45855 | 19177 ft | 396 kts | 11° |
| 2026-05-07 19:41 | 40.74521 | -112.44863 | 18575 ft | 390 kts | 11° |
| 2026-05-07 19:41 | 40.77112 | -112.43885 | 17931 ft | 385 kts | 11° |
| 2026-05-07 19:42 | 40.79667 | -112.42920 | 17308 ft | 378 kts | 11° |
| 2026-05-07 19:42 | 40.82148 | -112.41866 | 16715 ft | 375 kts | 18° |
| 2026-05-07 19:42 | 40.84489 | -112.40297 | 16066 ft | 377 kts | 26° |
| 2026-05-07 19:42 | 40.86720 | -112.38512 | 15496 ft | 372 kts | 27° |
| 2026-05-07 19:43 | 40.88399 | -112.37145 | 15066 ft | 369 kts | 27° |
| 2026-05-07 19:43 | 40.90567 | -112.35380 | 14493 ft | 367 kts | 27° |
| 2026-05-07 19:43 | 40.92664 | -112.33683 | 13971 ft | 366 kts | 27° |
| 2026-05-07 19:43 | 40.94913 | -112.31874 | 13305 ft | 369 kts | 27° |
| 2026-05-07 19:44 | 40.97118 | -112.30108 | 12547 ft | 371 kts | 27° |
| 2026-05-07 19:44 | 40.99327 | -112.28341 | 11817 ft | 371 kts | 27° |
| 2026-05-07 19:44 | 41.01495 | -112.26607 | 11214 ft | 367 kts | 28° |
| 2026-05-07 19:44 | 41.03628 | -112.24900 | 10980 ft | 354 kts | 28° |
| 2026-05-07 19:45 | 41.05697 | -112.23241 | 10579 ft | 342 kts | 28° |
| 2026-05-07 19:45 | 41.07654 | -112.21671 | 10483 ft | 326 kts | 27° |
| 2026-05-07 19:45 | 41.09583 | -112.20126 | 10376 ft | 314 kts | 27° |
| 2026-05-07 19:45 | 41.11417 | -112.18654 | 10306 ft | 303 kts | 27° |
| 2026-05-07 19:46 | 41.13180 | -112.17187 | 10219 ft | 299 kts | 35° |
| 2026-05-07 19:46 | 41.14499 | -112.15059 | 10147 ft | 304 kts | 62° |
| 2026-05-07 19:46 | 41.15033 | -112.12326 | 9957 ft | 313 kts | 88° |
| 2026-05-07 19:46 | 41.14594 | -112.09515 | 9577 ft | 312 kts | 118° |
| 2026-05-07 19:47 | 41.13259 | -112.07346 | 9192 ft | 301 kts | 147° |
| 2026-05-07 19:47 | 41.11426 | -112.06150 | 8900 ft | 289 kts | 166° |
| 2026-05-07 19:47 | 41.09496 | -112.05486 | 8694 ft | 284 kts | 170° |
| 2026-05-07 19:47 | 41.07619 | -112.04931 | 8632 ft | 269 kts | 171° |
| 2026-05-07 19:48 | 41.05830 | -112.04404 | 8552 ft | 257 kts | 171° |
| 2026-05-07 19:48 | 41.04129 | -112.03879 | 8439 ft | 244 kts | 170° |
| 2026-05-07 19:48 | 41.02522 | -112.03362 | 8358 ft | 231 kts | 170° |
| 2026-05-07 19:48 | 41.00992 | -112.02867 | 8165 ft | 220 kts | 170° |
| 2026-05-07 19:49 | 40.99520 | -112.02392 | 7846 ft | 217 kts | 169° |
| 2026-05-07 19:49 | 40.98060 | -112.02004 | 7581 ft | 210 kts | 176° |
| 2026-05-07 19:49 | 40.96630 | -112.01795 | 7306 ft | 205 kts | 178° |
| 2026-05-07 19:49 | 40.95215 | -112.01631 | 7033 ft | 207 kts | 178° |
| 2026-05-07 19:50 | 40.93760 | -112.01463 | 6786 ft | 212 kts | 178° |
| 2026-05-07 19:50 | 40.92297 | -112.01292 | 6533 ft | 209 kts | 177° |
| 2026-05-07 19:50 | 40.90864 | -112.01122 | 6249 ft | 205 kts | 178° |
| 2026-05-07 19:50 | 40.89439 | -112.00952 | 6017 ft | 206 kts | 178° |
| 2026-05-07 19:51 | 40.88026 | -112.00789 | 5727 ft | 200 kts | 178° |
| 2026-05-07 19:51 | 40.86690 | -112.00633 | 5512 ft | 187 kts | 176° |
| 2026-05-07 19:51 | 40.85436 | -112.00484 | 5286 ft | 175 kts | 176° |
| 2026-05-07 19:51 | 40.84285 | -112.00353 | 5054 ft | 169 kts | 176° |
| 2026-05-07 19:52 | 40.83104 | -112.00206 | 4763 ft | 172 kts | 174° |
| 2026-05-07 19:52 | 40.81916 | -112.00066 | 4517 ft | 173 kts | 174° |
| 2026-05-07 19:52 | 40.80732 | -111.99929 | 4285 ft | 169 kts | 173° |
| 2026-05-07 19:52 | 40.79659 | -111.99810 | 4230 ft | 137 kts | 174° |
| 2026-05-07 19:53 | 40.78930 | -111.99704 | 4240 ft | 75 kts | 175° |
| 2026-05-07 19:53 | 40.78616 | -111.99668 | 4239 ft | 36 kts | 167° |
| 2026-05-07 19:53 | 40.78452 | -111.99528 | 4234 ft | 20 kts | 118° |
| 2026-05-07 19:53 | 40.78494 | -111.99450 | 4235 ft | 12 kts | 3° |
| 2026-05-07 19:54 | 40.78560 | -111.99458 | 4235 ft | 8 kts | 358° |
| 2026-05-07 19:54 | 40.78598 | -111.99457 | 4235 ft | 8 kts | 0° |
| 2026-05-07 19:54 | 40.78674 | -111.99448 | 4237 ft | 15 kts | 39° |
| 2026-05-07 19:54 | 40.78695 | -111.99304 | 4236 ft | 17 kts | 98° |
| 2026-05-07 19:55 | 40.78680 | -111.99156 | 4235 ft | 15 kts | 93° |
| 2026-05-07 19:55 | 40.78681 | -111.99014 | 4233 ft | 16 kts | 88° |
| 2026-05-07 19:55 | 40.78691 | -111.98900 | 4232 ft | 9 kts | 70° |
| 2026-05-07 19:55 | 40.78696 | -111.98856 | 4232 ft | 2 kts | 97° |
| 2026-05-07 19:56 | 40.78693 | -111.98845 | 4232 ft | 0 kts | 111° |
| 2026-05-07 19:56 | 40.78692 | -111.98843 | 4232 ft | 0 kts | 118° |
| 2026-05-07 19:57 | 40.78672 | -111.98822 | 4230 ft | 1 kts | 166° |
| 2026-05-07 19:57 | 40.78665 | -111.98822 | 4232 ft | 0 kts | 186° |
| 2026-05-07 19:57 | 40.78642 | -111.98833 | 4231 ft | 6 kts | 195° |
| 2026-05-07 19:58 | 40.78626 | -111.98835 | 4232 ft | 0 kts | 184° |
| 2026-05-07 19:58 | 40.78620 | -111.98835 | 4232 ft | 0 kts | 178° |